PWSweather.com
Personal Weather Stations
Station Observations
VAJNORY
Vajnory, BratislavaSK 83107

VajnoryBratislavaSK 83107

Lat: 48.208, Lon: 17.202

Elevation: 434

Station Type: MeteoPi by eMeteo.sk

https://emeteo.sk/sk/meteostanica/vajnory

Latest ConditionsUpdated 4:32:01 AM GMT+01:01 Monday, May 20, 2019
Currently Today's Max Today's Min Today's Average
Temperature 54.5°F12.5°C 56.3°F13.5°C 54.3°F12.4°C 55.4°F13.0°C
Dew Point 43.0°F6.1°C 45.0°F7.2°C 43.0°F6.1°C 43.9°F6.6°C
Winds 23.4 mph SSE37.7 kmh SSE 25.3 mph -40.7 kmh - - 21.0 mph 33.8 kmh
Wind Gusts 27.4 mph44.1 kmh 29.6 mph47.6 kmh - -
Humidity 65% 65% 65% 65%
Pressure 30.21 in1023.0 mb 30.21 in1023.0 mb 30.20 in1022.7 mb -
Precipitation - 0.14 in3.6 mm - -
Hour Temp Dew Point Humidity Winds Wind Gusts Pressure Precip Precip Rate Daily Precip Total
04:32 AM 54.5°F12.5°C 43.0°F6.1°C 65% 23.4 mph SSE37.7 kmh SSE 27.4 mph44.1 kmh 30.21 in1023.0 mb 0.05 in1.3 mm 0.00 in0.0 mm 0.14 in3.6 mm
04:31 AM 54.5°F12.5°C 43.0°F6.1°C 65% 23.2 mph SE37.3 kmh SE 25.4 mph40.9 kmh 30.21 in1023.0 mb 0.07 in1.8 mm 0.00 in0.0 mm 0.14 in3.6 mm
04:30 AM 54.5°F12.5°C 43.0°F6.1°C 65% 24.6 mph SE39.6 kmh SE 27.1 mph43.6 kmh 30.21 in1023.0 mb 0.07 in1.8 mm 0.00 in0.0 mm 0.14 in3.6 mm
04:29 AM 54.5°F12.5°C 43.0°F6.1°C 65% 22.8 mph SSE36.7 kmh SSE 24.6 mph39.6 kmh 30.21 in1023.0 mb 0.07 in1.8 mm 0.00 in0.0 mm 0.14 in3.6 mm
04:28 AM 54.5°F12.5°C 43.0°F6.1°C 65% 23.0 mph SSE37.0 kmh SSE 24.8 mph39.9 kmh 30.21 in1023.0 mb 0.07 in1.8 mm 0.00 in0.0 mm 0.14 in3.6 mm
04:27 AM 54.5°F12.5°C 43.0°F6.1°C 65% 22.6 mph SSE36.4 kmh SSE 24.1 mph38.8 kmh 30.21 in1023.0 mb 0.07 in1.8 mm 0.00 in0.0 mm 0.14 in3.6 mm
04:26 AM 54.5°F12.5°C 43.0°F6.1°C 65% 22.5 mph SSE36.2 kmh SSE 24.2 mph38.9 kmh 30.21 in1023.0 mb 0.07 in1.8 mm 0.00 in0.0 mm 0.14 in3.6 mm
04:25 AM 54.5°F12.5°C 43.0°F6.1°C 65% 22.1 mph SSE35.6 kmh SSE 23.5 mph37.8 kmh 30.21 in1023.0 mb 0.07 in1.8 mm 0.00 in0.0 mm 0.13 in3.3 mm
04:24 AM 54.5°F12.5°C 43.0°F6.1°C 65% 22.8 mph SE36.7 kmh SE 24.4 mph39.3 kmh 30.21 in1023.0 mb 0.07 in1.8 mm 0.00 in0.0 mm 0.13 in3.3 mm
04:23 AM 54.5°F12.5°C 43.0°F6.1°C 65% 22.4 mph ESE36.0 kmh ESE 24.2 mph38.9 kmh 30.21 in1023.0 mb 0.07 in1.8 mm 0.00 in0.0 mm 0.13 in3.3 mm
04:22 AM 54.5°F12.5°C 43.0°F6.1°C 65% 22.9 mph SE36.9 kmh SE 24.9 mph40.1 kmh 30.21 in1023.0 mb 0.07 in1.8 mm 0.00 in0.0 mm 0.13 in3.3 mm
04:21 AM 54.5°F12.5°C 43.0°F6.1°C 65% 24.8 mph SE39.9 kmh SE 28.5 mph45.9 kmh 30.21 in1023.0 mb 0.07 in1.8 mm 0.00 in0.0 mm 0.13 in3.3 mm
04:20 AM 54.5°F12.5°C 43.0°F6.1°C 65% 24.7 mph SE39.8 kmh SE 28.1 mph45.2 kmh 30.21 in1023.0 mb 0.07 in1.8 mm 0.00 in0.0 mm 0.13 in3.3 mm
04:19 AM 54.7°F12.6°C 43.0°F6.1°C 65% 23.6 mph SE38.0 kmh SE 26.2 mph42.2 kmh 30.21 in1023.0 mb 0.08 in2.0 mm 0.00 in0.0 mm 0.13 in3.3 mm
04:18 AM 54.7°F12.6°C 43.0°F6.1°C 65% 23.6 mph SE38.0 kmh SE 25.9 mph41.7 kmh 30.21 in1023.0 mb 0.08 in2.0 mm 0.00 in0.0 mm 0.13 in3.3 mm
04:17 AM 54.7°F12.6°C 43.0°F6.1°C 65% 25.3 mph SSE40.7 kmh SSE 28.8 mph46.3 kmh 30.21 in1023.0 mb 0.08 in2.0 mm 0.60 in15.2 mm 0.13 in3.3 mm
04:16 AM 54.7°F12.6°C 43.0°F6.1°C 65% 23.2 mph SE37.3 kmh SE 25.8 mph41.5 kmh 30.21 in1023.0 mb 0.07 in1.8 mm 0.00 in0.0 mm 0.12 in3.0 mm
04:15 AM 54.7°F12.6°C 43.0°F6.1°C 65% 23.9 mph SE38.5 kmh SE 26.4 mph42.5 kmh 30.21 in1023.0 mb 0.07 in1.8 mm 0.00 in0.0 mm 0.12 in3.0 mm
04:14 AM 54.7°F12.6°C 43.0°F6.1°C 65% 23.3 mph SE37.5 kmh SE 26.1 mph42.0 kmh 30.21 in1023.0 mb 0.08 in2.0 mm 0.00 in0.0 mm 0.12 in3.0 mm
04:13 AM 54.7°F12.6°C 43.0°F6.1°C 65% 25.0 mph SE40.2 kmh SE 29.6 mph47.6 kmh 30.21 in1023.0 mb 0.08 in2.0 mm 0.00 in0.0 mm 0.12 in3.0 mm
04:12 AM 54.7°F12.6°C 43.0°F6.1°C 65% 22.5 mph SE36.2 kmh SE 24.4 mph39.3 kmh 30.21 in1023.0 mb 0.08 in2.0 mm 0.00 in0.0 mm 0.12 in3.0 mm
04:11 AM 54.7°F12.6°C 43.0°F6.1°C 65% 23.2 mph SE37.3 kmh SE 25.2 mph40.6 kmh 30.21 in1023.0 mb 0.08 in2.0 mm 0.00 in0.0 mm 0.12 in3.0 mm
04:10 AM 54.7°F12.6°C 43.0°F6.1°C 65% 23.9 mph SE38.5 kmh SE 26.8 mph43.1 kmh 30.21 in1023.0 mb 0.08 in2.0 mm 0.00 in0.0 mm 0.12 in3.0 mm
04:09 AM 54.9°F12.7°C 43.0°F6.1°C 65% 22.3 mph ESE35.9 kmh ESE 23.7 mph38.1 kmh 30.21 in1023.0 mb 0.09 in2.3 mm 0.00 in0.0 mm 0.12 in3.0 mm
04:08 AM 54.9°F12.7°C 43.0°F6.1°C 65% 21.7 mph SE34.9 kmh SE 23.6 mph38.0 kmh 30.21 in1023.0 mb 0.09 in2.3 mm 0.00 in0.0 mm 0.12 in3.0 mm
04:07 AM 54.9°F12.7°C 43.0°F6.1°C 65% 20.9 mph ESE33.6 kmh ESE 21.5 mph34.6 kmh 30.21 in1023.0 mb 0.09 in2.3 mm 0.00 in0.0 mm 0.12 in3.0 mm
04:06 AM 54.9°F12.7°C 43.0°F6.1°C 65% 23.4 mph SE37.7 kmh SE 25.8 mph41.5 kmh 30.21 in1023.0 mb 0.09 in2.3 mm 0.60 in15.2 mm 0.12 in3.0 mm
04:05 AM 54.9°F12.7°C 43.0°F6.1°C 65% 23.3 mph SSE37.5 kmh SSE 25.4 mph40.9 kmh 30.21 in1023.0 mb 0.08 in2.0 mm 0.00 in0.0 mm 0.11 in2.8 mm
04:04 AM 55.0°F12.8°C 44.0°F6.7°C 65% 24.9 mph SSE40.1 kmh SSE 29.3 mph47.2 kmh 30.20 in1022.7 mb 0.08 in2.0 mm 0.00 in0.0 mm 0.11 in2.8 mm
04:03 AM 55.0°F12.8°C 44.0°F6.7°C 65% 22.5 mph ESE36.2 kmh ESE 24.3 mph39.1 kmh 30.20 in1022.7 mb 0.08 in2.0 mm 0.00 in0.0 mm 0.11 in2.8 mm
04:02 AM 55.0°F12.8°C 44.0°F6.7°C 65% 24.7 mph SE39.8 kmh SE 27.9 mph44.9 kmh 30.20 in1022.7 mb 0.08 in2.0 mm 0.00 in0.0 mm 0.11 in2.8 mm
04:01 AM 55.0°F12.8°C 44.0°F6.7°C 65% 22.1 mph ESE35.6 kmh ESE 24.1 mph38.8 kmh 30.20 in1022.7 mb 0.08 in2.0 mm 0.00 in0.0 mm 0.11 in2.8 mm
04:00 AM 55.0°F12.8°C 44.0°F6.7°C 65% 21.3 mph E34.3 kmh E 22.2 mph35.7 kmh 30.20 in1022.7 mb 0.09 in2.3 mm 0.00 in0.0 mm 0.11 in2.8 mm
03:59 AM 55.0°F12.8°C 44.0°F6.7°C 65% 22.4 mph ESE36.0 kmh ESE 24.2 mph38.9 kmh 30.20 in1022.7 mb 0.09 in2.3 mm 0.00 in0.0 mm 0.11 in2.8 mm
03:58 AM 55.2°F12.9°C 44.0°F6.7°C 65% 22.6 mph ESE36.4 kmh ESE 24.4 mph39.3 kmh 30.20 in1022.7 mb 0.09 in2.3 mm 0.00 in0.0 mm 0.11 in2.8 mm
03:57 AM 55.2°F12.9°C 44.0°F6.7°C 65% 20.5 mph E33.0 kmh E 21.0 mph33.8 kmh 30.20 in1022.7 mb 0.09 in2.3 mm 0.00 in0.0 mm 0.11 in2.8 mm
03:56 AM 55.2°F12.9°C 44.0°F6.7°C 65% 20.2 mph SSW32.5 kmh SSW 20.4 mph32.8 kmh 30.20 in1022.7 mb 0.09 in2.3 mm 0.00 in0.0 mm 0.11 in2.8 mm
03:55 AM 55.2°F12.9°C 44.0°F6.7°C 65% 20.1 mph SE32.3 kmh SE 20.2 mph32.5 kmh 30.20 in1022.7 mb 0.09 in2.3 mm 0.00 in0.0 mm 0.11 in2.8 mm
03:54 AM 55.2°F12.9°C 44.0°F6.7°C 65% 20.4 mph SE32.8 kmh SE 20.7 mph33.3 kmh 30.20 in1022.7 mb 0.09 in2.3 mm 0.00 in0.0 mm 0.11 in2.8 mm
03:53 AM 55.2°F12.9°C 44.0°F6.7°C 65% 19.9 mph S32.0 kmh S 19.9 mph32.0 kmh 30.20 in1022.7 mb 0.09 in2.3 mm 0.00 in0.0 mm 0.11 in2.8 mm
03:52 AM 55.2°F12.9°C 44.0°F6.7°C 65% 20.6 mph SE33.2 kmh SE 21.0 mph33.8 kmh 30.20 in1022.7 mb 0.09 in2.3 mm 0.00 in0.0 mm 0.11 in2.8 mm
03:51 AM 55.2°F12.9°C 44.0°F6.7°C 65% 20.2 mph S32.5 kmh S 20.4 mph32.8 kmh 30.20 in1022.7 mb 0.09 in2.3 mm 0.00 in0.0 mm 0.11 in2.8 mm
03:50 AM 55.2°F12.9°C 44.0°F6.7°C 65% 20.2 mph SE32.5 kmh SE 20.4 mph32.8 kmh 30.20 in1022.7 mb 0.09 in2.3 mm 0.00 in0.0 mm 0.10 in2.5 mm
03:49 AM 55.2°F12.9°C 44.0°F6.7°C 65% 20.2 mph SE32.5 kmh SE 20.4 mph32.8 kmh 30.20 in1022.7 mb 0.09 in2.3 mm 0.00 in0.0 mm 0.10 in2.5 mm
03:48 AM 55.2°F12.9°C 44.0°F6.7°C 65% 20.2 mph SE32.5 kmh SE 19.9 mph32.0 kmh 30.20 in1022.7 mb 0.09 in2.3 mm 0.00 in0.0 mm 0.10 in2.5 mm
03:47 AM 55.4°F13.0°C 44.0°F6.7°C 65% 19.9 mph SE32.0 kmh SE 19.9 mph32.0 kmh 30.20 in1022.7 mb 0.09 in2.3 mm 0.00 in0.0 mm 0.10 in2.5 mm
03:46 AM 55.2°F12.9°C 44.0°F6.7°C 65% 20.3 mph NE32.7 kmh NE 20.6 mph33.2 kmh 30.20 in1022.7 mb 0.09 in2.3 mm 0.00 in0.0 mm 0.10 in2.5 mm
03:45 AM 55.2°F12.9°C 44.0°F6.7°C 65% 20.1 mph 32.3 kmh 20.2 mph32.5 kmh 30.20 in1022.7 mb 0.09 in2.3 mm 0.00 in0.0 mm 0.10 in2.5 mm
03:44 AM 55.4°F13.0°C 44.0°F6.7°C 65% 20.1 mph S32.3 kmh S 20.1 mph32.3 kmh 30.20 in1022.7 mb 0.09 in2.3 mm 0.00 in0.0 mm 0.10 in2.5 mm
03:43 AM 55.2°F12.9°C 44.0°F6.7°C 65% 20.1 mph S32.3 kmh S 20.1 mph32.3 kmh 30.20 in1022.7 mb 0.09 in2.3 mm 0.60 in15.2 mm 0.10 in2.5 mm
03:42 AM 55.4°F13.0°C 44.0°F6.7°C 65% 21.3 mph SE34.3 kmh SE 22.3 mph35.9 kmh 30.20 in1022.7 mb 0.08 in2.0 mm 0.00 in0.0 mm 0.09 in2.3 mm
03:41 AM 55.4°F13.0°C 44.0°F6.7°C 65% 20.4 mph SSE32.8 kmh SSE 20.8 mph33.5 kmh 30.20 in1022.7 mb 0.08 in2.0 mm 0.00 in0.0 mm 0.09 in2.3 mm
03:40 AM 55.4°F13.0°C 44.0°F6.7°C 65% 20.1 mph NE32.3 kmh NE 20.1 mph32.3 kmh 30.20 in1022.7 mb 0.08 in2.0 mm 0.00 in0.0 mm 0.09 in2.3 mm
03:39 AM 55.4°F13.0°C 44.0°F6.7°C 65% 20.1 mph SSE32.3 kmh SSE 20.2 mph32.5 kmh 30.20 in1022.7 mb 0.08 in2.0 mm 0.00 in0.0 mm 0.09 in2.3 mm
03:38 AM 55.4°F13.0°C 44.0°F6.7°C 65% 20.7 mph SSE33.3 kmh SSE 21.3 mph34.3 kmh 30.20 in1022.7 mb 0.08 in2.0 mm 0.00 in0.0 mm 0.09 in2.3 mm
03:37 AM 55.4°F13.0°C 44.0°F6.7°C 65% 20.3 mph ESE32.7 kmh ESE 20.6 mph33.2 kmh 30.20 in1022.7 mb 0.08 in2.0 mm 0.00 in0.0 mm 0.09 in2.3 mm
03:36 AM 55.4°F13.0°C 44.0°F6.7°C 65% 19.9 mph E32.0 kmh E 20.0 mph32.2 kmh 30.20 in1022.7 mb 0.08 in2.0 mm 0.00 in0.0 mm 0.09 in2.3 mm
03:35 AM 55.4°F13.0°C 44.0°F6.7°C 65% 20.7 mph SE33.3 kmh SE 21.1 mph34.0 kmh 30.20 in1022.7 mb 0.08 in2.0 mm 0.00 in0.0 mm 0.09 in2.3 mm
03:34 AM 55.4°F13.0°C 44.0°F6.7°C 65% 20.5 mph NE33.0 kmh NE 20.8 mph33.5 kmh 30.20 in1022.7 mb 0.08 in2.0 mm 0.00 in0.0 mm 0.09 in2.3 mm
03:33 AM 55.4°F13.0°C 44.0°F6.7°C 65% 20.0 mph NE32.2 kmh NE 20.0 mph32.2 kmh 30.20 in1022.7 mb 0.09 in2.3 mm 0.60 in15.2 mm 0.09 in2.3 mm
03:32 AM 55.4°F13.0°C 44.0°F6.7°C 65% 21.2 mph NE34.1 kmh NE 22.1 mph35.6 kmh 30.20 in1022.7 mb 0.08 in2.0 mm 0.00 in0.0 mm 0.08 in2.0 mm
03:31 AM 55.4°F13.0°C 44.0°F6.7°C 65% 20.0 mph S32.2 kmh S 20.1 mph32.3 kmh 30.20 in1022.7 mb 0.08 in2.0 mm 0.00 in0.0 mm 0.08 in2.0 mm
03:30 AM 55.4°F13.0°C 44.0°F6.7°C 65% 19.9 mph S32.0 kmh S 19.9 mph32.0 kmh 30.20 in1022.7 mb 0.08 in2.0 mm 0.00 in0.0 mm 0.08 in2.0 mm
03:29 AM 55.4°F13.0°C 44.0°F6.7°C 65% 19.9 mph ENE32.0 kmh ENE 19.9 mph32.0 kmh 30.20 in1022.7 mb 0.08 in2.0 mm 0.00 in0.0 mm 0.08 in2.0 mm
03:28 AM 55.6°F13.1°C 44.0°F6.7°C 65% 19.9 mph NE32.0 kmh NE 19.9 mph32.0 kmh 30.20 in1022.7 mb 0.08 in2.0 mm 0.00 in0.0 mm 0.08 in2.0 mm
03:27 AM 55.6°F13.1°C 44.0°F6.7°C 65% 20.3 mph NE32.7 kmh NE 20.6 mph33.2 kmh 30.20 in1022.7 mb 0.08 in2.0 mm 0.60 in15.2 mm 0.08 in2.0 mm
03:26 AM 55.6°F13.1°C 44.0°F6.7°C 65% 20.8 mph ENE33.5 kmh ENE 21.3 mph34.3 kmh 30.20 in1022.7 mb 0.07 in1.8 mm 0.00 in0.0 mm 0.07 in1.8 mm
03:25 AM 55.4°F13.0°C 44.0°F6.7°C 65% 21.1 mph ENE34.0 kmh ENE 21.8 mph35.1 kmh 30.20 in1022.7 mb 0.07 in1.8 mm 0.00 in0.0 mm 0.07 in1.8 mm
03:24 AM 55.6°F13.1°C 44.0°F6.7°C 65% 19.9 mph NE32.0 kmh NE 19.9 mph32.0 kmh 30.20 in1022.7 mb 0.07 in1.8 mm 0.00 in0.0 mm 0.07 in1.8 mm
03:23 AM 55.6°F13.1°C 44.0°F6.7°C 65% 20.5 mph E33.0 kmh E 20.9 mph33.6 kmh 30.20 in1022.7 mb 0.07 in1.8 mm 0.00 in0.0 mm 0.07 in1.8 mm
03:22 AM 55.6°F13.1°C 44.0°F6.7°C 65% 19.9 mph S32.0 kmh S 19.9 mph32.0 kmh 30.20 in1022.7 mb 0.07 in1.8 mm 0.00 in0.0 mm 0.07 in1.8 mm
03:21 AM 55.6°F13.1°C 44.0°F6.7°C 65% 20.3 mph S32.7 kmh S 20.5 mph33.0 kmh 30.20 in1022.7 mb 0.07 in1.8 mm 1.20 in30.5 mm 0.07 in1.8 mm
03:20 AM 55.6°F13.1°C 44.0°F6.7°C 65% 20.2 mph E32.5 kmh E 20.3 mph32.7 kmh 30.20 in1022.7 mb 0.05 in1.3 mm 0.00 in0.0 mm 0.05 in1.3 mm
03:19 AM 55.6°F13.1°C 44.0°F6.7°C 65% 20.4 mph NE32.8 kmh NE 20.6 mph33.2 kmh 30.20 in1022.7 mb 0.05 in1.3 mm 0.00 in0.0 mm 0.05 in1.3 mm
03:18 AM 55.6°F13.1°C 44.0°F6.7°C 65% 20.3 mph NE32.7 kmh NE 20.6 mph33.2 kmh 30.20 in1022.7 mb 0.05 in1.3 mm 0.00 in0.0 mm 0.05 in1.3 mm
03:17 AM 55.6°F13.1°C 44.0°F6.7°C 65% 20.0 mph E32.2 kmh E 20.0 mph32.2 kmh 30.20 in1022.7 mb 0.05 in1.3 mm 0.00 in0.0 mm 0.05 in1.3 mm
03:16 AM 55.6°F13.1°C 44.0°F6.7°C 65% 20.0 mph SE32.2 kmh SE 20.0 mph32.2 kmh 30.20 in1022.7 mb 0.05 in1.3 mm 0.60 in15.2 mm 0.05 in1.3 mm
03:15 AM 55.6°F13.1°C 44.0°F6.7°C 65% 20.7 mph NE33.3 kmh NE 21.2 mph34.1 kmh 30.20 in1022.7 mb 0.04 in1.0 mm 0.00 in0.0 mm 0.04 in1.0 mm
03:14 AM 55.6°F13.1°C 44.0°F6.7°C 65% 20.6 mph NE33.2 kmh NE 21.0 mph33.8 kmh 30.20 in1022.7 mb 0.04 in1.0 mm 0.00 in0.0 mm 0.04 in1.0 mm
03:13 AM 55.8°F13.2°C 44.0°F6.7°C 65% 20.1 mph E32.3 kmh E 20.2 mph32.5 kmh 30.20 in1022.7 mb 0.04 in1.0 mm 0.00 in0.0 mm 0.04 in1.0 mm
03:12 AM 55.8°F13.2°C 44.0°F6.7°C 65% 20.6 mph E33.2 kmh E 21.0 mph33.8 kmh 30.20 in1022.7 mb 0.04 in1.0 mm 0.00 in0.0 mm 0.04 in1.0 mm
03:11 AM 55.8°F13.2°C 44.0°F6.7°C 65% 20.9 mph NE33.6 kmh NE 21.5 mph34.6 kmh 30.20 in1022.7 mb 0.04 in1.0 mm 0.60 in15.2 mm 0.04 in1.0 mm
03:10 AM 55.8°F13.2°C 44.0°F6.7°C 65% 21.9 mph SE35.2 kmh SE 23.4 mph37.7 kmh 30.20 in1022.7 mb 0.03 in0.8 mm 0.00 in0.0 mm 0.03 in0.8 mm
03:09 AM 55.8°F13.2°C 44.0°F6.7°C 65% 21.0 mph NE33.8 kmh NE 21.5 mph34.6 kmh 30.20 in1022.7 mb 0.03 in0.8 mm 0.00 in0.0 mm 0.03 in0.8 mm
03:08 AM 55.8°F13.2°C 44.0°F6.7°C 65% 20.9 mph NE33.6 kmh NE 21.5 mph34.6 kmh 30.20 in1022.7 mb 0.03 in0.8 mm 0.00 in0.0 mm 0.03 in0.8 mm
03:07 AM 55.8°F13.2°C 44.0°F6.7°C 65% 20.8 mph NE33.5 kmh NE 21.3 mph34.3 kmh 30.20 in1022.7 mb 0.03 in0.8 mm 0.00 in0.0 mm 0.03 in0.8 mm
03:06 AM 55.8°F13.2°C 44.0°F6.7°C 65% 20.7 mph E33.3 kmh E 21.3 mph34.3 kmh 30.20 in1022.7 mb 0.03 in0.8 mm 0.00 in0.0 mm 0.03 in0.8 mm
03:05 AM 55.8°F13.2°C 44.0°F6.7°C 65% 22.2 mph E35.7 kmh E 23.8 mph38.3 kmh 30.20 in1022.7 mb 0.03 in0.8 mm 0.00 in0.0 mm 0.03 in0.8 mm
03:04 AM 55.9°F13.3°C 44.0°F6.7°C 65% 21.3 mph E34.3 kmh E 22.1 mph35.6 kmh 30.20 in1022.7 mb 0.03 in0.8 mm 0.00 in0.0 mm 0.03 in0.8 mm
03:03 AM 55.9°F13.3°C 44.0°F6.7°C 65% 22.6 mph SE36.4 kmh SE 24.3 mph39.1 kmh 30.20 in1022.7 mb 0.03 in0.8 mm 0.00 in0.0 mm 0.03 in0.8 mm
03:02 AM 55.9°F13.3°C 44.0°F6.7°C 65% 23.0 mph SE37.0 kmh SE 25.0 mph40.2 kmh 30.20 in1022.7 mb 0.03 in0.8 mm 0.60 in15.2 mm 0.03 in0.8 mm
03:01 AM 55.9°F13.3°C 44.0°F6.7°C 65% 22.6 mph SE36.4 kmh SE 24.3 mph39.1 kmh 30.20 in1022.7 mb 0.02 in0.5 mm 0.00 in0.0 mm 0.02 in0.5 mm
03:00 AM 55.9°F13.3°C 44.0°F6.7°C 65% 22.3 mph E35.9 kmh E 23.7 mph38.1 kmh 30.20 in1022.7 mb 0.02 in0.5 mm 0.00 in0.0 mm 0.02 in0.5 mm
02:59 AM 55.9°F13.3°C 44.0°F6.7°C 65% 22.3 mph SE35.9 kmh SE 23.9 mph38.5 kmh 30.20 in1022.7 mb 0.02 in0.5 mm 0.00 in0.0 mm 0.02 in0.5 mm
02:58 AM 55.9°F13.3°C 44.0°F6.7°C 65% 21.8 mph SE35.1 kmh SE 22.9 mph36.9 kmh 30.20 in1022.7 mb 0.02 in0.5 mm 0.00 in0.0 mm 0.02 in0.5 mm
02:57 AM 55.9°F13.3°C 44.0°F6.7°C 65% 21.6 mph ESE34.8 kmh ESE 22.9 mph36.9 kmh 30.20 in1022.7 mb 0.02 in0.5 mm 0.00 in0.0 mm 0.02 in0.5 mm
02:56 AM 55.9°F13.3°C 44.0°F6.7°C 65% 20.8 mph NE33.5 kmh NE 21.4 mph34.4 kmh 30.20 in1022.7 mb 0.02 in0.5 mm 0.00 in0.0 mm 0.02 in0.5 mm
02:55 AM 56.1°F13.4°C 45.0°F7.2°C 65% 22.2 mph SE35.7 kmh SE 23.9 mph38.5 kmh 30.20 in1022.7 mb 0.02 in0.5 mm 0.00 in0.0 mm 0.02 in0.5 mm
02:54 AM 56.1°F13.4°C 45.0°F7.2°C 65% 20.3 mph SE32.7 kmh SE 20.7 mph33.3 kmh 30.20 in1022.7 mb 0.02 in0.5 mm 0.00 in0.0 mm 0.02 in0.5 mm
02:53 AM 56.1°F13.4°C 45.0°F7.2°C 65% 21.2 mph SE34.1 kmh SE 21.9 mph35.2 kmh 30.20 in1022.7 mb 0.02 in0.5 mm 0.00 in0.0 mm 0.02 in0.5 mm
02:52 AM 56.1°F13.4°C 45.0°F7.2°C 65% 20.2 mph SE32.5 kmh SE 20.3 mph32.7 kmh 30.20 in1022.7 mb 0.02 in0.5 mm 0.60 in15.2 mm 0.02 in0.5 mm
02:51 AM 56.1°F13.4°C 45.0°F7.2°C 65% 20.1 mph SE32.3 kmh SE 20.2 mph32.5 kmh 30.20 in1022.7 mb 0.01 in0.3 mm 0.00 in0.0 mm 0.01 in0.3 mm
02:50 AM 56.1°F13.4°C 45.0°F7.2°C 65% 20.6 mph SE33.2 kmh SE 21.1 mph34.0 kmh 30.20 in1022.7 mb 0.01 in0.3 mm 0.00 in0.0 mm 0.01 in0.3 mm
02:49 AM 56.1°F13.4°C 45.0°F7.2°C 65% 20.5 mph ESE33.0 kmh ESE 20.9 mph33.6 kmh 30.20 in1022.7 mb 0.01 in0.3 mm 0.00 in0.0 mm 0.01 in0.3 mm
02:48 AM 56.1°F13.4°C 45.0°F7.2°C 65% 21.4 mph NE34.4 kmh NE 22.1 mph35.6 kmh 30.20 in1022.7 mb 0.01 in0.3 mm 0.00 in0.0 mm 0.01 in0.3 mm
02:47 AM 56.1°F13.4°C 45.0°F7.2°C 65% 20.2 mph 32.5 kmh 20.3 mph32.7 kmh 30.20 in1022.7 mb 0.01 in0.3 mm 0.00 in0.0 mm 0.01 in0.3 mm
02:46 AM 56.1°F13.4°C 45.0°F7.2°C 65% 20.8 mph NE33.5 kmh NE 21.3 mph34.3 kmh 30.20 in1022.7 mb 0.01 in0.3 mm 0.00 in0.0 mm 0.01 in0.3 mm
02:45 AM 56.1°F13.4°C 45.0°F7.2°C 65% 21.8 mph E35.1 kmh E 22.8 mph36.7 kmh 30.20 in1022.7 mb 0.01 in0.3 mm 0.00 in0.0 mm 0.01 in0.3 mm
02:44 AM 56.1°F13.4°C 45.0°F7.2°C 65% 20.7 mph SE33.3 kmh SE 21.2 mph34.1 kmh 30.20 in1022.7 mb 0.01 in0.3 mm 0.00 in0.0 mm 0.01 in0.3 mm
02:43 AM 56.1°F13.4°C 45.0°F7.2°C 65% 20.7 mph ESE33.3 kmh ESE 21.2 mph34.1 kmh 30.20 in1022.7 mb 0.01 in0.3 mm 0.00 in0.0 mm 0.01 in0.3 mm
02:42 AM 56.1°F13.4°C 45.0°F7.2°C 65% 20.8 mph NE33.5 kmh NE 21.3 mph34.3 kmh 30.20 in1022.7 mb 0.01 in0.3 mm 0.00 in0.0 mm 0.01 in0.3 mm
02:41 AM 56.1°F13.4°C 45.0°F7.2°C 65% 21.4 mph NE34.4 kmh NE 22.4 mph36.0 kmh 30.20 in1022.7 mb 0.01 in0.3 mm 0.00 in0.0 mm 0.01 in0.3 mm
02:40 AM 56.1°F13.4°C 45.0°F7.2°C 65% 21.6 mph NE34.8 kmh NE 22.8 mph36.7 kmh 30.20 in1022.7 mb 0.01 in0.3 mm 0.00 in0.0 mm 0.01 in0.3 mm
02:39 AM 56.1°F13.4°C 45.0°F7.2°C 65% 21.6 mph NE34.8 kmh NE 22.6 mph36.4 kmh 30.20 in1022.7 mb 0.01 in0.3 mm 0.00 in0.0 mm 0.01 in0.3 mm
02:38 AM 56.1°F13.4°C 45.0°F7.2°C 65% 21.2 mph NE34.1 kmh NE 21.9 mph35.2 kmh 30.20 in1022.7 mb 0.01 in0.3 mm 0.00 in0.0 mm 0.01 in0.3 mm
02:37 AM 56.1°F13.4°C 45.0°F7.2°C 65% 21.8 mph NNE35.1 kmh NNE 22.8 mph36.7 kmh 30.20 in1022.7 mb 0.01 in0.3 mm 0.00 in0.0 mm 0.01 in0.3 mm
02:36 AM 56.1°F13.4°C 45.0°F7.2°C 65% 22.2 mph NE35.7 kmh NE 23.6 mph38.0 kmh 30.20 in1022.7 mb 0.01 in0.3 mm 0.00 in0.0 mm 0.01 in0.3 mm
02:35 AM 56.1°F13.4°C 45.0°F7.2°C 65% 21.4 mph NNE34.4 kmh NNE 22.2 mph35.7 kmh 30.20 in1022.7 mb 0.01 in0.3 mm 0.60 in15.2 mm 0.01 in0.3 mm
02:34 AM 56.1°F13.4°C 45.0°F7.2°C 65% 20.9 mph NE33.6 kmh NE 21.5 mph34.6 kmh 30.20 in1022.7 mb 0.00 in0.0 mm 0.00 in0.0 mm 0.00 in0.0 mm
02:33 AM 56.1°F13.4°C 45.0°F7.2°C 65% 21.2 mph NE34.1 kmh NE 22.0 mph35.4 kmh 30.20 in1022.7 mb 0.00 in0.0 mm 0.00 in0.0 mm 0.00 in0.0 mm
02:32 AM 56.1°F13.4°C 45.0°F7.2°C 65% 21.2 mph NNE34.1 kmh NNE 22.0 mph35.4 kmh 30.20 in1022.7 mb 0.00 in0.0 mm 0.00 in0.0 mm 0.00 in0.0 mm
02:31 AM 56.1°F13.4°C 45.0°F7.2°C 65% 21.3 mph N34.3 kmh N 22.0 mph35.4 kmh 30.20 in1022.7 mb 0.00 in0.0 mm 0.00 in0.0 mm 0.00 in0.0 mm
02:30 AM 56.1°F13.4°C 45.0°F7.2°C 65% 21.4 mph NE34.4 kmh NE 22.2 mph35.7 kmh 30.20 in1022.7 mb 0.00 in0.0 mm 0.00 in0.0 mm 0.00 in0.0 mm
02:29 AM 56.1°F13.4°C 45.0°F7.2°C 65% 21.1 mph NE34.0 kmh NE 21.8 mph35.1 kmh 30.20 in1022.7 mb 0.00 in0.0 mm 0.00 in0.0 mm 0.00 in0.0 mm
02:28 AM 56.1°F13.4°C 45.0°F7.2°C 65% 20.1 mph NE32.3 kmh NE 20.2 mph32.5 kmh 30.20 in1022.7 mb 0.00 in0.0 mm 0.00 in0.0 mm 0.00 in0.0 mm
02:27 AM 56.1°F13.4°C 45.0°F7.2°C 65% 20.1 mph NE32.3 kmh NE 20.3 mph32.7 kmh 30.20 in1022.7 mb 0.00 in0.0 mm 0.00 in0.0 mm 0.00 in0.0 mm
02:26 AM 56.1°F13.4°C 45.0°F7.2°C 65% 20.3 mph NE32.7 kmh NE 20.4 mph32.8 kmh 30.20 in1022.7 mb 0.00 in0.0 mm 0.00 in0.0 mm 0.00 in0.0 mm
02:25 AM 56.1°F13.4°C 45.0°F7.2°C 65% 20.4 mph NE32.8 kmh NE 20.7 mph33.3 kmh 30.20 in1022.7 mb 0.00 in0.0 mm 0.00 in0.0 mm 0.00 in0.0 mm
02:24 AM 56.1°F13.4°C 45.0°F7.2°C 65% 20.0 mph NE32.2 kmh NE 20.1 mph32.3 kmh 30.20 in1022.7 mb 0.00 in0.0 mm 0.00 in0.0 mm 0.00 in0.0 mm
02:23 AM 56.1°F13.4°C 45.0°F7.2°C 65% 19.9 mph NE32.0 kmh NE 19.9 mph32.0 kmh 30.20 in1022.7 mb 0.00 in0.0 mm 0.00 in0.0 mm 0.00 in0.0 mm
02:22 AM 56.1°F13.4°C 45.0°F7.2°C 65% 19.9 mph NE32.0 kmh NE 19.9 mph32.0 kmh 30.20 in1022.7 mb 0.00 in0.0 mm 0.00 in0.0 mm 0.00 in0.0 mm
02:21 AM 56.1°F13.4°C 45.0°F7.2°C 65% 20.5 mph NE33.0 kmh NE 20.7 mph33.3 kmh 30.20 in1022.7 mb 0.00 in0.0 mm 0.00 in0.0 mm 0.00 in0.0 mm
02:20 AM 56.1°F13.4°C 45.0°F7.2°C 65% 21.3 mph NE34.3 kmh NE 22.2 mph35.7 kmh 30.20 in1022.7 mb 0.00 in0.0 mm 0.00 in0.0 mm 0.00 in0.0 mm
02:19 AM 56.1°F13.4°C 45.0°F7.2°C 65% 21.3 mph NE34.3 kmh NE 22.1 mph35.6 kmh 30.20 in1022.7 mb 0.00 in0.0 mm 0.00 in0.0 mm 0.00 in0.0 mm
02:18 AM 56.1°F13.4°C 45.0°F7.2°C 65% 20.6 mph NE33.2 kmh NE 22.1 mph35.6 kmh 30.20 in1022.7 mb 0.00 in0.0 mm 0.00 in0.0 mm 0.00 in0.0 mm
02:17 AM 56.3°F13.5°C 45.0°F7.2°C 65% 21.2 mph NE34.1 kmh NE 22.0 mph35.4 kmh 30.20 in1022.7 mb 0.00 in0.0 mm 0.00 in0.0 mm 0.00 in0.0 mm
02:16 AM 56.1°F13.4°C 45.0°F7.2°C 65% 21.2 mph NE34.1 kmh NE 22.0 mph35.4 kmh 30.20 in1022.7 mb 0.00 in0.0 mm 0.00 in0.0 mm 0.00 in0.0 mm
02:15 AM 56.1°F13.4°C 45.0°F7.2°C 65% 21.4 mph NE34.4 kmh NE 22.3 mph35.9 kmh 30.20 in1022.7 mb 0.00 in0.0 mm 0.00 in0.0 mm 0.00 in0.0 mm
02:14 AM 56.1°F13.4°C 45.0°F7.2°C 65% 21.7 mph NE34.9 kmh NE 22.8 mph36.7 kmh 30.20 in1022.7 mb 0.00 in0.0 mm 0.00 in0.0 mm 0.00 in0.0 mm
02:13 AM 56.1°F13.4°C 45.0°F7.2°C 65% 21.5 mph NE34.6 kmh NE 22.4 mph36.0 kmh 30.20 in1022.7 mb 0.00 in0.0 mm 0.00 in0.0 mm 0.00 in0.0 mm
02:12 AM 56.3°F13.5°C 45.0°F7.2°C 65% 21.1 mph NNE34.0 kmh NNE 21.9 mph35.2 kmh 30.20 in1022.7 mb 0.00 in0.0 mm 0.00 in0.0 mm 0.00 in0.0 mm
02:11 AM 56.1°F13.4°C 45.0°F7.2°C 65% 21.1 mph NE34.0 kmh NE 21.7 mph34.9 kmh 30.20 in1022.7 mb 0.00 in0.0 mm 0.00 in0.0 mm 0.00 in0.0 mm
02:10 AM 56.1°F13.4°C 45.0°F7.2°C 65% 21.9 mph NE35.2 kmh NE 22.9 mph36.9 kmh 30.20 in1022.7 mb 0.00 in0.0 mm 0.00 in0.0 mm 0.00 in0.0 mm
02:09 AM 56.1°F13.4°C 45.0°F7.2°C 65% 21.0 mph NNE33.8 kmh NNE 21.7 mph34.9 kmh 30.20 in1022.7 mb 0.00 in0.0 mm 0.00 in0.0 mm 0.00 in0.0 mm
02:08 AM 56.1°F13.4°C 45.0°F7.2°C 65% 21.3 mph NNE34.3 kmh NNE 22.1 mph35.6 kmh 30.20 in1022.7 mb 0.00 in0.0 mm 0.00 in0.0 mm 0.00 in0.0 mm
02:07 AM 56.1°F13.4°C 45.0°F7.2°C 65% 21.6 mph NE34.8 kmh NE 22.7 mph36.5 kmh 30.20 in1022.7 mb 0.00 in0.0 mm 0.00 in0.0 mm 0.00 in0.0 mm
02:06 AM 56.3°F13.5°C 45.0°F7.2°C 65% 21.9 mph NE35.2 kmh NE 23.3 mph37.5 kmh 30.20 in1022.7 mb 0.00 in0.0 mm 0.00 in0.0 mm 0.00 in0.0 mm
02:05 AM 56.1°F13.4°C 45.0°F7.2°C 65% 21.3 mph NNE34.3 kmh NNE 22.2 mph35.7 kmh 30.20 in1022.7 mb 0.00 in0.0 mm 0.00 in0.0 mm 0.00 in0.0 mm
02:04 AM 56.1°F13.4°C 45.0°F7.2°C 65% 21.7 mph NNE34.9 kmh NNE 22.8 mph36.7 kmh 30.20 in1022.7 mb 0.00 in0.0 mm 0.00 in0.0 mm 0.00 in0.0 mm
02:03 AM 56.1°F13.4°C 45.0°F7.2°C 65% 21.5 mph NNE34.6 kmh NNE 22.6 mph36.4 kmh 30.20 in1022.7 mb 0.00 in0.0 mm 0.00 in0.0 mm 0.00 in0.0 mm
02:02 AM 56.3°F13.5°C 45.0°F7.2°C 65% 21.2 mph NE34.1 kmh NE 22.0 mph35.4 kmh 30.20 in1022.7 mb 0.00 in0.0 mm 0.00 in0.0 mm 0.00 in0.0 mm
02:01 AM 56.1°F13.4°C 45.0°F7.2°C 65% 21.8 mph NE35.1 kmh NE 23.0 mph37.0 kmh 30.20 in1022.7 mb 0.00 in0.0 mm 0.00 in0.0 mm 0.00 in0.0 mm
02:00 AM 56.3°F13.5°C 45.0°F7.2°C 65% 21.3 mph NE34.3 kmh NE 22.0 mph35.4 kmh 30.20 in1022.7 mb 0.00 in0.0 mm 0.00 in0.0 mm 0.00 in0.0 mm
01:59 AM 56.3°F13.5°C 45.0°F7.2°C 65% 21.7 mph NE34.9 kmh NE 22.8 mph36.7 kmh 30.20 in1022.7 mb 0.00 in0.0 mm 0.00 in0.0 mm 0.00 in0.0 mm
01:58 AM 56.3°F13.5°C 45.0°F7.2°C 65% 21.6 mph NE34.8 kmh NE 22.7 mph36.5 kmh 30.20 in1022.7 mb 0.00 in0.0 mm 0.00 in0.0 mm 0.00 in0.0 mm
01:57 AM 56.3°F13.5°C 45.0°F7.2°C 65% 21.5 mph NE34.6 kmh NE 22.6 mph36.4 kmh 30.20 in1022.7 mb 0.00 in0.0 mm 0.00 in0.0 mm 0.00 in0.0 mm
01:56 AM 56.3°F13.5°C 45.0°F7.2°C 65% 21.6 mph NE34.8 kmh NE 22.7 mph36.5 kmh 30.20 in1022.7 mb 0.00 in0.0 mm 0.00 in0.0 mm 0.00 in0.0 mm
01:55 AM 56.3°F13.5°C 45.0°F7.2°C 65% 21.3 mph NE34.3 kmh NE 22.1 mph35.6 kmh 30.20 in1022.7 mb 0.00 in0.0 mm 0.00 in0.0 mm 0.00 in0.0 mm
01:54 AM 56.1°F13.4°C 45.0°F7.2°C 65% 21.5 mph ENE34.6 kmh ENE 22.5 mph36.2 kmh 30.20 in1022.7 mb 0.00 in0.0 mm 0.00 in0.0 mm 0.00 in0.0 mm
01:53 AM 56.3°F13.5°C 45.0°F7.2°C 65% 21.3 mph NE34.3 kmh NE 22.0 mph35.4 kmh 30.20 in1022.7 mb 0.00 in0.0 mm 0.00 in0.0 mm 0.00 in0.0 mm
01:52 AM 56.1°F13.4°C 45.0°F7.2°C 65% 21.1 mph NE34.0 kmh NE 21.7 mph34.9 kmh 30.20 in1022.7 mb 0.00 in0.0 mm 0.00 in0.0 mm 0.00 in0.0 mm
01:51 AM 56.1°F13.4°C 45.0°F7.2°C 65% 21.1 mph NE34.0 kmh NE 21.8 mph35.1 kmh 30.20 in1022.7 mb 0.00 in0.0 mm 0.00 in0.0 mm 0.00 in0.0 mm
01:50 AM 56.1°F13.4°C 45.0°F7.2°C 65% 21.2 mph NE34.1 kmh NE 21.9 mph35.2 kmh 30.20 in1022.7 mb 0.00 in0.0 mm 0.00 in0.0 mm 0.00 in0.0 mm
01:49 AM 56.1°F13.4°C 45.0°F7.2°C 65% 21.5 mph NE34.6 kmh NE 22.3 mph35.9 kmh 30.20 in1022.7 mb 0.00 in0.0 mm 0.00 in0.0 mm 0.00 in0.0 mm
01:48 AM 56.1°F13.4°C 45.0°F7.2°C 65% 21.3 mph NE34.3 kmh NE 22.1 mph35.6 kmh 30.20 in1022.7 mb 0.00 in0.0 mm 0.00 in0.0 mm 0.00 in0.0 mm
01:47 AM 56.1°F13.4°C 45.0°F7.2°C 65% 21.7 mph NE34.9 kmh NE 22.7 mph36.5 kmh 30.20 in1022.7 mb 0.00 in0.0 mm 0.00 in0.0 mm 0.00 in0.0 mm
01:46 AM 56.1°F13.4°C 45.0°F7.2°C 65% 21.3 mph N34.3 kmh N 22.3 mph35.9 kmh 30.20 in1022.7 mb 0.00 in0.0 mm 0.00 in0.0 mm 0.00 in0.0 mm
01:45 AM 56.1°F13.4°C 45.0°F7.2°C 65% 20.7 mph NE33.3 kmh NE 21.1 mph34.0 kmh 30.20 in1022.7 mb 0.00 in0.0 mm 0.00 in0.0 mm 0.00 in0.0 mm
01:44 AM 56.1°F13.4°C 45.0°F7.2°C 65% 20.9 mph NE33.6 kmh NE 21.5 mph34.6 kmh 30.20 in1022.7 mb 0.00 in0.0 mm 0.00 in0.0 mm 0.00 in0.0 mm
01:43 AM 56.1°F13.4°C 45.0°F7.2°C 65% 20.9 mph NE33.6 kmh NE 21.4 mph34.4 kmh 30.20 in1022.7 mb 0.00 in0.0 mm 0.00 in0.0 mm 0.00 in0.0 mm
01:42 AM 56.3°F13.5°C 45.0°F7.2°C 65% 21.0 mph NE33.8 kmh NE 21.5 mph34.6 kmh 30.20 in1022.7 mb 0.00 in0.0 mm 0.00 in0.0 mm 0.00 in0.0 mm
01:41 AM 56.1°F13.4°C 45.0°F7.2°C 65% 21.6 mph NE34.8 kmh NE 22.6 mph36.4 kmh 30.20 in1022.7 mb 0.00 in0.0 mm 0.00 in0.0 mm 0.00 in0.0 mm
01:40 AM 56.1°F13.4°C 45.0°F7.2°C 65% 22.4 mph NNE36.0 kmh NNE 23.9 mph38.5 kmh 30.20 in1022.7 mb 0.00 in0.0 mm 0.00 in0.0 mm 0.00 in0.0 mm
01:39 AM 56.3°F13.5°C 45.0°F7.2°C 65% 21.9 mph ENE35.2 kmh ENE 23.1 mph37.2 kmh 30.20 in1022.7 mb 0.00 in0.0 mm 0.00 in0.0 mm 0.00 in0.0 mm
01:38 AM 56.1°F13.4°C 45.0°F7.2°C 65% 21.1 mph E34.0 kmh E 21.9 mph35.2 kmh 30.20 in1022.7 mb 0.00 in0.0 mm 0.00 in0.0 mm 0.00 in0.0 mm
01:37 AM 56.1°F13.4°C 45.0°F7.2°C 65% 21.3 mph NE34.3 kmh NE 22.1 mph35.6 kmh 30.20 in1022.7 mb 0.00 in0.0 mm 0.00 in0.0 mm 0.00 in0.0 mm
01:36 AM 56.1°F13.4°C 45.0°F7.2°C 65% 22.1 mph NE35.6 kmh NE 23.5 mph37.8 kmh 30.20 in1022.7 mb 0.00 in0.0 mm 0.00 in0.0 mm 0.00 in0.0 mm
01:35 AM 55.9°F13.3°C 44.0°F6.7°C 65% 22.1 mph NNE35.6 kmh NNE 23.4 mph37.7 kmh 30.20 in1022.7 mb 0.00 in0.0 mm 0.00 in0.0 mm 0.00 in0.0 mm
01:34 AM 56.1°F13.4°C 45.0°F7.2°C 65% 22.0 mph NE35.4 kmh NE 23.2 mph37.3 kmh 30.20 in1022.7 mb 0.00 in0.0 mm 0.00 in0.0 mm 0.00 in0.0 mm
01:33 AM 55.9°F13.3°C 44.0°F6.7°C 65% 21.0 mph NE33.8 kmh NE 21.6 mph34.8 kmh 30.20 in1022.7 mb 0.00 in0.0 mm 0.00 in0.0 mm 0.00 in0.0 mm
01:32 AM 55.8°F13.2°C 44.0°F6.7°C 65% 21.0 mph ENE33.8 kmh ENE 21.7 mph34.9 kmh 30.20 in1022.7 mb 0.00 in0.0 mm 0.00 in0.0 mm 0.00 in0.0 mm
01:31 AM 55.8°F13.2°C 44.0°F6.7°C 65% 20.5 mph NE33.0 kmh NE 20.8 mph33.5 kmh 30.20 in1022.7 mb 0.00 in0.0 mm 0.00 in0.0 mm 0.00 in0.0 mm
01:30 AM 55.8°F13.2°C 44.0°F6.7°C 65% 20.2 mph NE32.5 kmh NE 20.4 mph32.8 kmh 30.20 in1022.7 mb 0.00 in0.0 mm 0.00 in0.0 mm 0.00 in0.0 mm
01:29 AM 55.8°F13.2°C 44.0°F6.7°C 65% 20.4 mph NE32.8 kmh NE 20.7 mph33.3 kmh 30.20 in1022.7 mb 0.00 in0.0 mm 0.00 in0.0 mm 0.00 in0.0 mm
01:28 AM 55.8°F13.2°C 44.0°F6.7°C 65% 20.9 mph NE33.6 kmh NE 21.4 mph34.4 kmh 30.20 in1022.7 mb 0.00 in0.0 mm 0.00 in0.0 mm 0.00 in0.0 mm
01:27 AM 55.8°F13.2°C 44.0°F6.7°C 65% 20.9 mph N33.6 kmh N 21.5 mph34.6 kmh 30.20 in1022.7 mb 0.00 in0.0 mm 0.00 in0.0 mm 0.00 in0.0 mm
01:26 AM 55.8°F13.2°C 44.0°F6.7°C 65% 20.1 mph 32.3 kmh 20.3 mph32.7 kmh 30.20 in1022.7 mb 0.00 in0.0 mm 0.00 in0.0 mm 0.00 in0.0 mm
01:25 AM 55.8°F13.2°C 44.0°F6.7°C 65% 20.9 mph NE33.6 kmh NE 21.4 mph34.4 kmh 30.20 in1022.7 mb 0.00 in0.0 mm 0.00 in0.0 mm 0.00 in0.0 mm
01:24 AM 55.8°F13.2°C 44.0°F6.7°C 65% 21.6 mph NNE34.8 kmh NNE 22.6 mph36.4 kmh 30.20 in1022.7 mb 0.00 in0.0 mm 0.00 in0.0 mm 0.00 in0.0 mm
01:23 AM 55.8°F13.2°C 44.0°F6.7°C 65% 21.5 mph NNE34.6 kmh NNE 22.4 mph36.0 kmh 30.20 in1022.7 mb 0.00 in0.0 mm 0.00 in0.0 mm 0.00 in0.0 mm
01:22 AM 55.6°F13.1°C 44.0°F6.7°C 65% 20.8 mph NE33.5 kmh NE 21.2 mph34.1 kmh 30.20 in1022.7 mb 0.00 in0.0 mm 0.00 in0.0 mm 0.00 in0.0 mm
01:21 AM 55.6°F13.1°C 44.0°F6.7°C 65% 21.4 mph NE34.4 kmh NE 22.2 mph35.7 kmh 30.20 in1022.7 mb 0.00 in0.0 mm 0.00 in0.0 mm 0.00 in0.0 mm
01:20 AM 55.4°F13.0°C 44.0°F6.7°C 65% 21.5 mph NE34.6 kmh NE 22.4 mph36.0 kmh 30.20 in1022.7 mb 0.00 in0.0 mm 0.00 in0.0 mm 0.00 in0.0 mm
01:19 AM 55.4°F13.0°C 44.0°F6.7°C 65% 21.4 mph NE34.4 kmh NE 22.2 mph35.7 kmh 30.20 in1022.7 mb 0.00 in0.0 mm 0.00 in0.0 mm 0.00 in0.0 mm
01:18 AM 55.4°F13.0°C 44.0°F6.7°C 65% 21.1 mph NE34.0 kmh NE 21.8 mph35.1 kmh 30.20 in1022.7 mb 0.00 in0.0 mm 0.00 in0.0 mm 0.00 in0.0 mm
01:17 AM 55.4°F13.0°C 44.0°F6.7°C 65% 20.4 mph NE32.8 kmh NE 20.7 mph33.3 kmh 30.20 in1022.7 mb 0.00 in0.0 mm 0.00 in0.0 mm 0.00 in0.0 mm
01:16 AM 55.2°F12.9°C 44.0°F6.7°C 65% 21.1 mph NE34.0 kmh NE 21.8 mph35.1 kmh 30.20 in1022.7 mb 0.00 in0.0 mm 0.00 in0.0 mm 0.00 in0.0 mm
01:15 AM 55.4°F13.0°C 44.0°F6.7°C 65% 20.7 mph NE33.3 kmh NE 21.2 mph34.1 kmh 30.20 in1022.7 mb 0.00 in0.0 mm 0.00 in0.0 mm 0.00 in0.0 mm
01:14 AM 55.2°F12.9°C 44.0°F6.7°C 65% 20.8 mph NE33.5 kmh NE 21.3 mph34.3 kmh 30.20 in1022.7 mb 0.00 in0.0 mm 0.00 in0.0 mm 0.00 in0.0 mm
01:13 AM 55.0°F12.8°C 44.0°F6.7°C 65% 21.2 mph NE34.1 kmh NE 21.9 mph35.2 kmh 30.20 in1022.7 mb 0.00 in0.0 mm 0.00 in0.0 mm 0.00 in0.0 mm
01:12 AM 55.0°F12.8°C 44.0°F6.7°C 65% 20.8 mph NE33.5 kmh NE 21.3 mph34.3 kmh 30.20 in1022.7 mb 0.00 in0.0 mm 0.00 in0.0 mm 0.00 in0.0 mm
01:11 AM 54.7°F12.6°C 43.0°F6.1°C 65% 20.8 mph NNE33.5 kmh NNE 21.2 mph34.1 kmh 30.21 in1023.0 mb 0.00 in0.0 mm 0.00 in0.0 mm 0.00 in0.0 mm
01:10 AM 54.7°F12.6°C 43.0°F6.1°C 65% 20.9 mph 33.6 kmh 21.4 mph34.4 kmh 30.21 in1023.0 mb 0.00 in0.0 mm 0.00 in0.0 mm 0.00 in0.0 mm
01:09 AM 54.7°F12.6°C 43.0°F6.1°C 65% 20.7 mph 33.3 kmh 21.2 mph34.1 kmh 30.21 in1023.0 mb 0.00 in0.0 mm 0.00 in0.0 mm 0.00 in0.0 mm
01:08 AM 54.7°F12.6°C 43.0°F6.1°C 65% 20.0 mph 32.2 kmh 20.0 mph32.2 kmh 30.21 in1023.0 mb 0.00 in0.0 mm 0.00 in0.0 mm 0.00 in0.0 mm
01:07 AM 54.5°F12.5°C 43.0°F6.1°C 65% 20.0 mph 32.2 kmh 20.1 mph32.3 kmh 30.21 in1023.0 mb 0.00 in0.0 mm 0.00 in0.0 mm 0.00 in0.0 mm
01:06 AM 54.7°F12.6°C 43.0°F6.1°C 65% 19.9 mph 32.0 kmh 19.9 mph32.0 kmh 30.21 in1023.0 mb 0.00 in0.0 mm 0.00 in0.0 mm 0.00 in0.0 mm
01:05 AM 54.7°F12.6°C 43.0°F6.1°C 65% 19.9 mph 32.0 kmh 19.9 mph32.0 kmh 30.21 in1023.0 mb 0.00 in0.0 mm 0.00 in0.0 mm 0.00 in0.0 mm
01:04 AM 54.5°F12.5°C 43.0°F6.1°C 65% 20.3 mph 32.7 kmh 20.5 mph33.0 kmh 30.21 in1023.0 mb 0.00 in0.0 mm 0.00 in0.0 mm 0.00 in0.0 mm
01:03 AM 54.5°F12.5°C 43.0°F6.1°C 65% 20.6 mph 33.2 kmh 21.0 mph33.8 kmh 30.21 in1023.0 mb 0.00 in0.0 mm 0.00 in0.0 mm 0.00 in0.0 mm
01:02 AM 54.5°F12.5°C 43.0°F6.1°C 65% 19.9 mph 32.0 kmh 19.9 mph32.0 kmh 30.21 in1023.0 mb 0.00 in0.0 mm 0.00 in0.0 mm 0.00 in0.0 mm
01:01 AM 54.5°F12.5°C 43.0°F6.1°C 65% 19.9 mph 32.0 kmh 19.9 mph32.0 kmh 30.21 in1023.0 mb 0.00 in0.0 mm 0.00 in0.0 mm 0.00 in0.0 mm
01:00 AM 54.5°F12.5°C 43.0°F6.1°C 65% 19.9 mph 32.0 kmh 19.9 mph32.0 kmh 30.21 in1023.0 mb 0.00 in0.0 mm 0.00 in0.0 mm 0.00 in0.0 mm
12:59 AM 54.5°F12.5°C 43.0°F6.1°C 65% 19.9 mph 32.0 kmh 19.9 mph32.0 kmh 30.21 in1023.0 mb 0.00 in0.0 mm 0.00 in0.0 mm 0.00 in0.0 mm
12:58 AM 54.5°F12.5°C 43.0°F6.1°C 65% 19.9 mph 32.0 kmh 19.9 mph32.0 kmh 30.21 in1023.0 mb 0.00 in0.0 mm 0.00 in0.0 mm 0.00 in0.0 mm
12:57 AM 54.5°F12.5°C 43.0°F6.1°C 65% 19.9 mph 32.0 kmh 19.9 mph32.0 kmh 30.21 in1023.0 mb 0.00 in0.0 mm 0.00 in0.0 mm 0.00 in0.0 mm
12:56 AM 54.5°F12.5°C 43.0°F6.1°C 65% 20.0 mph 32.2 kmh 20.0 mph32.2 kmh 30.21 in1023.0 mb 0.00 in0.0 mm 0.00 in0.0 mm 0.00 in0.0 mm
12:55 AM 54.5°F12.5°C 43.0°F6.1°C 65% 20.6 mph 33.2 kmh 21.0 mph33.8 kmh 30.21 in1023.0 mb 0.00 in0.0 mm 0.00 in0.0 mm 0.00 in0.0 mm
12:54 AM 54.3°F12.4°C 43.0°F6.1°C 65% 21.0 mph 33.8 kmh 21.6 mph34.8 kmh 30.21 in1023.0 mb 0.00 in0.0 mm 0.00 in0.0 mm 0.00 in0.0 mm
12:53 AM 54.5°F12.5°C 43.0°F6.1°C 65% 21.2 mph 34.1 kmh 21.9 mph35.2 kmh 30.21 in1023.0 mb 0.00 in0.0 mm 0.00 in0.0 mm 0.00 in0.0 mm
12:52 AM 54.5°F12.5°C 43.0°F6.1°C 65% 21.2 mph 34.1 kmh 21.9 mph35.2 kmh 30.21 in1023.0 mb 0.00 in0.0 mm 0.00 in0.0 mm 0.00 in0.0 mm
12:51 AM 54.3°F12.4°C 43.0°F6.1°C 65% 21.0 mph 33.8 kmh 21.6 mph34.8 kmh 30.21 in1023.0 mb 0.00 in0.0 mm 0.00 in0.0 mm 0.00 in0.0 mm
12:50 AM 54.3°F12.4°C 43.0°F6.1°C 65% 20.5 mph 33.0 kmh 20.8 mph33.5 kmh 30.21 in1023.0 mb 0.00 in0.0 mm 0.00 in0.0 mm 0.00 in0.0 mm
12:49 AM 54.3°F12.4°C 43.0°F6.1°C 65% 20.1 mph 32.3 kmh 20.8 mph33.5 kmh 30.21 in1023.0 mb 0.00 in0.0 mm 0.00 in0.0 mm 0.00 in0.0 mm
12:48 AM 54.3°F12.4°C 43.0°F6.1°C 65% 20.3 mph WSW32.7 kmh WSW 20.6 mph33.2 kmh 30.21 in1023.0 mb 0.00 in0.0 mm 0.00 in0.0 mm 0.00 in0.0 mm
12:47 AM 54.3°F12.4°C 43.0°F6.1°C 65% 20.1 mph NW32.3 kmh NW 20.2 mph32.5 kmh 30.21 in1023.0 mb 0.00 in0.0 mm 0.00 in0.0 mm 0.00 in0.0 mm
12:46 AM 54.3°F12.4°C 43.0°F6.1°C 65% 20.2 mph NW32.5 kmh NW 20.3 mph32.7 kmh 30.21 in1023.0 mb 0.00 in0.0 mm 0.00 in0.0 mm 0.00 in0.0 mm
12:45 AM 54.5°F12.5°C 43.0°F6.1°C 65% 20.4 mph NW32.8 kmh NW 20.7 mph33.3 kmh 30.21 in1023.0 mb 0.00 in0.0 mm 0.00 in0.0 mm 0.00 in0.0 mm
12:44 AM 54.5°F12.5°C 43.0°F6.1°C 65% 21.4 mph WNW34.4 kmh WNW 22.2 mph35.7 kmh 30.21 in1023.0 mb 0.00 in0.0 mm 0.00 in0.0 mm 0.00 in0.0 mm
12:43 AM 54.5°F12.5°C 43.0°F6.1°C 65% 21.8 mph NW35.1 kmh NW 22.8 mph36.7 kmh 30.21 in1023.0 mb 0.00 in0.0 mm 0.00 in0.0 mm 0.00 in0.0 mm
12:42 AM 54.5°F12.5°C 43.0°F6.1°C 65% 22.3 mph NW35.9 kmh NW 23.6 mph38.0 kmh 30.21 in1023.0 mb 0.00 in0.0 mm 0.00 in0.0 mm 0.00 in0.0 mm
12:41 AM 54.5°F12.5°C 43.0°F6.1°C 65% 20.7 mph S33.3 kmh S 21.2 mph34.1 kmh 30.21 in1023.0 mb 0.00 in0.0 mm 0.00 in0.0 mm 0.00 in0.0 mm
12:40 AM 54.7°F12.6°C 43.0°F6.1°C 65% 20.4 mph 32.8 kmh 20.7 mph33.3 kmh 30.21 in1023.0 mb 0.00 in0.0 mm 0.00 in0.0 mm 0.00 in0.0 mm
12:39 AM 54.5°F12.5°C 43.0°F6.1°C 65% 20.4 mph 32.8 kmh 20.7 mph33.3 kmh 30.21 in1023.0 mb 0.00 in0.0 mm 0.00 in0.0 mm 0.00 in0.0 mm
12:38 AM 54.7°F12.6°C 43.0°F6.1°C 65% 20.5 mph NNE33.0 kmh NNE 20.9 mph33.6 kmh 30.21 in1023.0 mb 0.00 in0.0 mm 0.00 in0.0 mm 0.00 in0.0 mm
12:37 AM 54.7°F12.6°C 43.0°F6.1°C 65% 20.0 mph NE32.2 kmh NE 20.0 mph32.2 kmh 30.21 in1023.0 mb 0.00 in0.0 mm 0.00 in0.0 mm 0.00 in0.0 mm
12:36 AM 54.7°F12.6°C 43.0°F6.1°C 65% 19.9 mph NE32.0 kmh NE 19.9 mph32.0 kmh 30.21 in1023.0 mb 0.00 in0.0 mm 0.00 in0.0 mm 0.00 in0.0 mm
12:35 AM 54.7°F12.6°C 43.0°F6.1°C 65% 19.9 mph NE32.0 kmh NE 19.9 mph32.0 kmh 30.21 in1023.0 mb 0.00 in0.0 mm 0.00 in0.0 mm 0.00 in0.0 mm
12:34 AM 54.5°F12.5°C 43.0°F6.1°C 65% 19.9 mph NE32.0 kmh NE 19.9 mph32.0 kmh 30.21 in1023.0 mb 0.00 in0.0 mm 0.00 in0.0 mm 0.00 in0.0 mm
12:33 AM 54.5°F12.5°C 43.0°F6.1°C 65% 20.1 mph NE32.3 kmh NE 20.2 mph32.5 kmh 30.21 in1023.0 mb 0.00 in0.0 mm 0.00 in0.0 mm 0.00 in0.0 mm
12:32 AM 54.5°F12.5°C 43.0°F6.1°C 65% 19.9 mph NE32.0 kmh NE 19.9 mph32.0 kmh 30.21 in1023.0 mb 0.00 in0.0 mm 0.00 in0.0 mm 0.00 in0.0 mm
12:31 AM 54.5°F12.5°C 43.0°F6.1°C 65% 19.9 mph NE32.0 kmh NE 19.9 mph32.0 kmh 30.21 in1023.0 mb 0.00 in0.0 mm 0.00 in0.0 mm 0.00 in0.0 mm
12:30 AM 54.5°F12.5°C 43.0°F6.1°C 65% 19.9 mph NE32.0 kmh NE 19.9 mph32.0 kmh 30.21 in1023.0 mb 0.00 in0.0 mm 0.00 in0.0 mm 0.00 in0.0 mm
12:29 AM 54.5°F12.5°C 43.0°F6.1°C 65% 19.9 mph NE32.0 kmh NE 19.9 mph32.0 kmh 30.21 in1023.0 mb 0.00 in0.0 mm 0.00 in0.0 mm 0.00 in0.0 mm
12:28 AM 54.5°F12.5°C 43.0°F6.1°C 65% 19.9 mph NE32.0 kmh NE 19.9 mph32.0 kmh 30.21 in1023.0 mb 0.00 in0.0 mm 0.00 in0.0 mm 0.00 in0.0 mm
12:27 AM 54.5°F12.5°C 43.0°F6.1°C 65% 19.9 mph NE32.0 kmh NE 19.9 mph32.0 kmh 30.21 in1023.0 mb 0.00 in0.0 mm 0.00 in0.0 mm 0.00 in0.0 mm
12:26 AM 54.7°F12.6°C 43.0°F6.1°C 65% 20.0 mph NE32.2 kmh NE 20.1 mph32.3 kmh 30.21 in1023.0 mb 0.00 in0.0 mm 0.00 in0.0 mm 0.00 in0.0 mm
12:25 AM 54.7°F12.6°C 43.0°F6.1°C 65% 20.4 mph NE32.8 kmh NE 20.7 mph33.3 kmh 30.21 in1023.0 mb 0.00 in0.0 mm 0.00 in0.0 mm 0.00 in0.0 mm
12:24 AM 54.5°F12.5°C 43.0°F6.1°C 65% 20.1 mph NE32.3 kmh NE 20.3 mph32.7 kmh 30.21 in1023.0 mb 0.00 in0.0 mm 0.00 in0.0 mm 0.00 in0.0 mm
12:23 AM 54.5°F12.5°C 43.0°F6.1°C 65% 19.9 mph NE32.0 kmh NE 19.9 mph32.0 kmh 30.21 in1023.0 mb 0.00 in0.0 mm 0.00 in0.0 mm 0.00 in0.0 mm
12:22 AM 54.5°F12.5°C 43.0°F6.1°C 65% 19.9 mph NE32.0 kmh NE 19.9 mph32.0 kmh 30.21 in1023.0 mb 0.00 in0.0 mm 0.00 in0.0 mm 0.00 in0.0 mm
12:21 AM 54.7°F12.6°C 43.0°F6.1°C 65% 19.9 mph NE32.0 kmh NE 19.9 mph32.0 kmh 30.21 in1023.0 mb 0.00 in0.0 mm 0.00 in0.0 mm 0.00 in0.0 mm
12:20 AM 54.7°F12.6°C 43.0°F6.1°C 65% 20.2 mph NE32.5 kmh NE 20.3 mph32.7 kmh 30.21 in1023.0 mb 0.00 in0.0 mm 0.00 in0.0 mm 0.00 in0.0 mm
12:19 AM 54.7°F12.6°C 43.0°F6.1°C 65% 20.2 mph NE32.5 kmh NE 20.3 mph32.7 kmh 30.21 in1023.0 mb 0.00 in0.0 mm 0.00 in0.0 mm 0.00 in0.0 mm
12:18 AM 54.7°F12.6°C 43.0°F6.1°C 65% 20.7 mph NE33.3 kmh NE 21.1 mph34.0 kmh 30.21 in1023.0 mb 0.00 in0.0 mm 0.00 in0.0 mm 0.00 in0.0 mm
12:17 AM 54.7°F12.6°C 43.0°F6.1°C 65% 20.5 mph NE33.0 kmh NE 20.8 mph33.5 kmh 30.21 in1023.0 mb 0.00 in0.0 mm 0.00 in0.0 mm 0.00 in0.0 mm
12:16 AM 54.7°F12.6°C 43.0°F6.1°C 65% 20.0 mph S32.2 kmh S 20.0 mph32.2 kmh 30.21 in1023.0 mb 0.00 in0.0 mm 0.00 in0.0 mm 0.00 in0.0 mm
12:15 AM 54.5°F12.5°C 43.0°F6.1°C 65% 19.9 mph S32.0 kmh S 19.9 mph32.0 kmh 30.21 in1023.0 mb 0.00 in0.0 mm 0.00 in0.0 mm 0.00 in0.0 mm
12:14 AM 54.5°F12.5°C 43.0°F6.1°C 65% 19.9 mph S32.0 kmh S 19.9 mph32.0 kmh 30.21 in1023.0 mb 0.00 in0.0 mm 0.00 in0.0 mm 0.00 in0.0 mm
12:13 AM 54.5°F12.5°C 43.0°F6.1°C 65% 19.9 mph ESE32.0 kmh ESE 19.9 mph32.0 kmh 30.21 in1023.0 mb 0.00 in0.0 mm 0.00 in0.0 mm 0.00 in0.0 mm
12:12 AM 54.5°F12.5°C 43.0°F6.1°C 65% 19.9 mph 32.0 kmh 19.9 mph32.0 kmh 30.21 in1023.0 mb 0.00 in0.0 mm 0.00 in0.0 mm 0.00 in0.0 mm
12:11 AM 54.7°F12.6°C 43.0°F6.1°C 65% 19.9 mph 32.0 kmh 19.9 mph32.0 kmh 30.21 in1023.0 mb 0.00 in0.0 mm 0.00 in0.0 mm 0.00 in0.0 mm
12:10 AM 54.7°F12.6°C 43.0°F6.1°C 65% 19.9 mph 32.0 kmh 19.9 mph32.0 kmh 30.21 in1023.0 mb 0.00 in0.0 mm 0.00 in0.0 mm 0.00 in0.0 mm
12:09 AM 54.7°F12.6°C 43.0°F6.1°C 65% 19.9 mph 32.0 kmh 19.9 mph32.0 kmh 30.21 in1023.0 mb 0.00 in0.0 mm 0.00 in0.0 mm 0.00 in0.0 mm
12:08 AM 54.5°F12.5°C 43.0°F6.1°C 65% 19.9 mph 32.0 kmh 19.9 mph32.0 kmh 30.21 in1023.0 mb 0.00 in0.0 mm 0.00 in0.0 mm 0.00 in0.0 mm
12:07 AM 54.5°F12.5°C 43.0°F6.1°C 65% 19.9 mph 32.0 kmh 19.9 mph32.0 kmh 30.21 in1023.0 mb 0.00 in0.0 mm 0.00 in0.0 mm 0.00 in0.0 mm
12:06 AM 54.5°F12.5°C 43.0°F6.1°C 65% 19.9 mph 32.0 kmh 19.9 mph32.0 kmh 30.21 in1023.0 mb 0.00 in0.0 mm 0.00 in0.0 mm 0.00 in0.0 mm
12:05 AM 54.7°F12.6°C 43.0°F6.1°C 65% 19.9 mph 32.0 kmh 19.9 mph32.0 kmh 30.21 in1023.0 mb 0.00 in0.0 mm 0.00 in0.0 mm 0.00 in0.0 mm
12:04 AM 54.7°F12.6°C 43.0°F6.1°C 65% 19.9 mph 32.0 kmh 19.9 mph32.0 kmh 30.21 in1023.0 mb 0.00 in0.0 mm 0.00 in0.0 mm 0.00 in0.0 mm
12:03 AM 54.7°F12.6°C 43.0°F6.1°C 65% 19.9 mph 32.0 kmh 19.9 mph32.0 kmh 30.21 in1023.0 mb 0.00 in0.0 mm 0.00 in0.0 mm 0.00 in0.0 mm
12:02 AM 54.7°F12.6°C 43.0°F6.1°C 65% 19.9 mph 32.0 kmh 19.9 mph32.0 kmh 30.21 in1023.0 mb 0.00 in0.0 mm 0.00 in0.0 mm 0.00 in0.0 mm
12:01 AM 54.9°F12.7°C 43.0°F6.1°C 65% 19.9 mph 32.0 kmh 19.9 mph32.0 kmh 30.21 in1023.0 mb 0.00 in0.0 mm 0.00 in0.0 mm 0.00 in0.0 mm
12:00 AM 54.9°F12.7°C 43.0°F6.1°C 65% 19.9 mph 32.0 kmh 19.9 mph32.0 kmh 30.21 in1023.0 mb 0.00 in0.0 mm 0.00 in0.0 mm 0.00 in0.0 mm